Time;durP1;ratioP1;P1;durP2;ratioP2;P2;SDS_P1;SDS_P2;PMS_P1;PMS_P2;Temp;Humidity;BMP_temperature;BMP_pressure;BME280_temperature;BME280_humidity;BME280_pressure;Samples;Min_cycle;Max_cycle;Signal;HPM_P1;HPM_P2
2021/07/06 00:00:16;;;;;;;14.30;10.80;;;;;;;22.80;62.83;94695.38;5069624;28;20208;-74
2021/07/06 00:02:43;;;;;;;14.20;10.70;;;;;;;22.74;62.85;94704.72;5083626;28;20246;-70
2021/07/06 00:05:11;;;;;;;11.67;10.53;;;;;;;22.78;62.57;94700.25;5078521;28;20187;-69
2021/07/06 00:07:39;;;;;;;15.33;10.63;;;;;;;22.59;62.93;94709.97;5087537;28;20193;-72
2021/07/06 00:10:08;;;;;;;15.07;10.67;;;;;;;22.59;63.24;94710.72;5069468;28;20219;-71
2021/07/06 00:12:34;;;;;;;14.83;10.90;;;;;;;22.45;63.45;94709.47;5084868;28;20262;-71
2021/07/06 00:15:04;;;;;;;16.13;10.60;;;;;;;22.52;63.09;94715.81;5094427;28;21126;-72
2021/07/06 00:17:31;;;;;;;17.60;10.33;;;;;;;22.37;63.37;94711.13;5094596;28;20282;-70
2021/07/06 00:19:58;;;;;;;13.57;10.13;;;;;;;22.44;63.07;94719.41;5080884;28;20187;-74
2021/07/06 00:22:25;;;;;;;11.93;10.03;;;;;;;22.39;63.03;94713.50;5077529;28;20202;-71
2021/07/06 00:24:53;;;;;;;12.27;10.90;;;;;;;22.54;62.48;94713.59;5078045;28;20228;-70
2021/07/06 00:27:19;;;;;;;12.37;11.10;;;;;;;22.51;62.82;94716.94;5078743;28;20202;-66
2021/07/06 00:29:46;;;;;;;16.87;11.20;;;;;;;22.56;62.49;94727.44;5080335;28;20195;-68
2021/07/06 00:32:13;;;;;;;18.00;12.67;;;;;;;22.00;64.08;94721.03;5079536;28;20231;-71
2021/07/06 00:34:41;;;;;;;14.33;11.20;;;;;;;22.27;63.75;94729.50;5089211;28;20698;-72
2021/07/06 00:37:09;;;;;;;15.93;12.10;;;;;;;22.29;63.39;94720.06;5086723;28;20203;-72
2021/07/06 00:39:37;;;;;;;14.87;11.07;;;;;;;22.12;63.38;94722.91;5078909;28;20331;-74
2021/07/06 00:42:09;;;;;;;11.50;10.30;;;;;;;22.45;62.32;94723.63;5075775;28;20673;-71
2021/07/06 00:44:36;;;;;;;14.33;10.73;;;;;;;22.46;61.63;94722.50;5089140;28;20187;-72
2021/07/06 00:47:05;;;;;;;12.07;10.53;;;;;;;22.34;61.90;94725.16;5089467;28;20187;-70
2021/07/06 00:49:33;;;;;;;15.37;11.33;;;;;;;22.28;61.77;94726.47;5090837;28;20227;-71
2021/07/06 00:52:02;;;;;;;18.40;11.70;;;;;;;22.10;62.26;94725.13;5083914;28;20203;-74
2021/07/06 00:54:29;;;;;;;15.77;11.80;;;;;;;21.64;63.42;94718.19;5080799;28;20939;-74
2021/07/06 00:57:00;;;;;;;14.00;10.53;;;;;;;21.80;63.52;94737.06;5080666;28;20199;-72
2021/07/06 00:59:27;;;;;;;15.67;12.37;;;;;;;21.75;63.58;94734.59;5062607;28;20214;-72
2021/07/06 01:01:53;;;;;;;16.67;10.83;;;;;;;21.76;63.65;94741.47;5073924;28;20924;-73
2021/07/06 01:04:20;;;;;;;13.83;10.53;;;;;;;21.80;63.56;94731.75;5092535;28;20218;-71
2021/07/06 01:06:48;;;;;;;13.63;10.63;;;;;;;21.76;64.06;94738.81;5084116;28;20192;-71
2021/07/06 01:09:15;;;;;;;13.77;10.50;;;;;;;21.87;63.69;94742.66;5087166;28;20199;-74
2021/07/06 01:11:42;;;;;;;16.80;11.50;;;;;;;21.80;63.30;94732.53;5081968;28;20191;-73
2021/07/06 01:14:09;;;;;;;13.73;11.00;;;;;;;21.73;63.21;94748.22;5093627;28;20195;-74
2021/07/06 01:16:35;;;;;;;13.93;11.03;;;;;;;21.62;63.82;94741.00;5072767;28;20207;-73
2021/07/06 01:19:03;;;;;;;18.67;11.13;;;;;;;21.74;63.38;94749.03;5085202;28;20264;-70
2021/07/06 01:21:30;;;;;;;14.33;11.03;;;;;;;21.41;64.04;94750.88;5091842;28;20201;-71
2021/07/06 01:23:57;;;;;;;12.37;10.50;;;;;;;21.40;64.08;94749.34;5093279;28;20228;-72
2021/07/06 01:26:25;;;;;;;13.80;10.97;;;;;;;21.53;63.81;94750.94;5092420;28;20195;-72
2021/07/06 01:28:53;;;;;;;14.27;10.80;;;;;;;21.37;64.19;94755.31;5092793;28;20195;-72
2021/07/06 01:31:20;;;;;;;18.33;11.47;;;;;;;21.44;64.17;94751.00;5077203;28;20281;-73
2021/07/06 01:33:48;;;;;;;15.77;11.17;;;;;;;21.49;63.59;94742.81;5081782;28;20203;-70
2021/07/06 01:36:17;;;;;;;17.33;11.23;;;;;;;21.45;64.08;94754.47;5077967;28;20215;-75
2021/07/06 01:38:44;;;;;;;13.63;10.27;;;;;;;21.51;63.32;94750.50;5059258;28;20567;-74
2021/07/06 01:41:12;;;;;;;12.07;10.50;;;;;;;21.41;63.19;94751.66;5073404;28;20195;-69
2021/07/06 01:43:39;;;;;;;11.80;10.60;;;;;;;21.50;63.16;94740.91;5092908;28;20203;-74
2021/07/06 01:46:06;;;;;;;20.50;11.20;;;;;;;21.65;62.64;94741.09;5091985;28;20206;-71
2021/07/06 01:48:33;;;;;;;13.73;10.70;;;;;;;21.55;62.54;94746.06;5092286;28;20192;-72
2021/07/06 01:51:00;;;;;;;14.77;10.93;;;;;;;21.57;62.40;94741.19;5092147;28;20207;-71
2021/07/06 01:53:27;;;;;;;14.00;11.70;;;;;;;21.40;62.90;94734.13;5092879;28;20195;-72
2021/07/06 01:55:54;;;;;;;13.33;11.70;;;;;;;21.37;63.11;94739.34;5091641;28;20214;-73
2021/07/06 01:58:23;;;;;;;12.63;11.33;;;;;;;21.38;63.46;94746.22;5092201;28;20191;-71
2021/07/06 02:00:56;;;;;;;13.10;10.93;;;;;;;21.43;63.03;94754.00;5090937;28;20195;-72
2021/07/06 02:03:23;;;;;;;14.67;11.07;;;;;;;21.36;63.25;94745.75;5083171;28;20196;-73
2021/07/06 02:05:56;;;;;;;18.20;11.07;;;;;;;21.44;63.08;94736.91;5072041;28;20219;-68
2021/07/06 02:08:23;;;;;;;15.97;11.80;;;;;;;21.25;63.81;94741.91;5092078;28;20191;-73
2021/07/06 02:10:53;;;;;;;13.10;11.00;;;;;;;21.41;63.34;94732.22;5091208;28;20199;-73
2021/07/06 02:13:23;;;;;;;17.23;11.77;;;;;;;20.40;66.67;94732.56;5078820;28;20195;-70
2021/07/06 02:15:52;;;;;;;16.10;11.93;;;;;;;20.38;67.02;94740.06;5091336;28;20214;-68
2021/07/06 02:18:20;;;;;;;15.20;11.77;;;;;;;20.47;66.80;94749.59;5091463;28;20268;-72
2021/07/06 02:20:49;;;;;;;14.00;10.73;;;;;;;20.41;67.38;94740.22;5092095;28;20809;-73
2021/07/06 02:23:17;;;;;;;19.77;12.80;;;;;;;20.88;65.77;94744.34;5093296;28;20191;-72
2021/07/06 02:25:44;;;;;;;14.83;11.53;;;;;;;21.11;65.00;94758.94;5092353;28;20202;-74
2021/07/06 02:28:11;;;;;;;13.17;10.80;;;;;;;21.20;64.48;94755.44;5092433;28;20216;-76
2021/07/06 02:30:38;;;;;;;15.77;11.77;;;;;;;21.14;64.39;94747.66;5090809;28;20194;-70
2021/07/06 02:33:05;;;;;;;13.90;10.83;;;;;;;21.11;64.72;94755.50;5090872;28;20230;-75
2021/07/06 02:35:32;;;;;;;15.73;11.00;;;;;;;21.23;64.24;94762.78;5090785;28;20628;-74
2021/07/06 02:38:00;;;;;;;16.70;11.63;;;;;;;21.14;64.14;94757.53;5080776;28;20446;-74
2021/07/06 02:40:29;;;;;;;15.93;11.30;;;;;;;21.20;63.93;94760.78;5086466;28;20191;-71
2021/07/06 02:42:57;;;;;;;15.87;11.20;;;;;;;21.08;63.82;94746.28;5082331;28;20190;-74
2021/07/06 02:45:25;;;;;;;12.23;10.70;;;;;;;21.10;63.61;94741.41;5084711;28;20237;-73
2021/07/06 02:47:53;;;;;;;17.03;11.97;;;;;;;21.23;63.42;94760.13;5071006;28;20187;-72
2021/07/06 02:50:22;;;;;;;12.73;11.43;;;;;;;21.26;63.48;94764.81;5070115;28;20198;-69
2021/07/06 02:52:49;;;;;;;15.90;12.07;;;;;;;21.27;63.24;94771.69;5084656;28;20200;-77
2021/07/06 02:55:16;;;;;;;12.33;10.90;;;;;;;21.28;63.25;94775.91;5082652;28;20191;-71
2021/07/06 02:57:43;;;;;;;14.90;11.30;;;;;;;21.34;63.00;94769.28;5076397;28;20199;-69
2021/07/06 03:00:16;;;;;;;12.43;11.17;;;;;;;21.40;63.13;94778.66;5090319;28;20746;-72
2021/07/06 03:02:49;;;;;;;16.93;11.00;;;;;;;21.23;63.74;94781.44;5076519;28;20947;-77
2021/07/06 03:05:18;;;;;;;16.50;12.50;;;;;;;21.27;63.25;94783.13;5079753;28;20541;-71
2021/07/06 03:07:46;;;;;;;14.60;10.77;;;;;;;21.23;63.10;94782.22;5084705;28;20195;-70
2021/07/06 03:10:17;;;;;;;15.97;13.00;;;;;;;21.23;63.15;94784.09;5079561;28;20293;-74
2021/07/06 03:12:45;;;;;;;19.60;17.50;;;;;;;21.14;63.56;94784.16;5089491;28;20205;-74
2021/07/06 03:15:15;;;;;;;24.43;21.57;;;;;;;21.17;63.34;94782.75;5085621;28;20196;-71
2021/07/06 03:17:42;;;;;;;25.63;21.80;;;;;;;21.24;63.26;94791.00;5084166;28;20199;-74
2021/07/06 03:20:13;;;;;;;23.37;20.87;;;;;;;21.09;63.73;94777.13;5082251;28;20194;-75
2021/07/06 03:22:40;;;;;;;26.80;24.07;;;;;;;21.17;63.73;94793.41;5089988;28;20572;-75
2021/07/06 03:25:11;;;;;;;31.40;26.93;;;;;;;21.31;62.96;94800.06;5090467;28;20191;-75
2021/07/06 03:27:39;;;;;;;30.03;25.20;;;;;;;21.06;63.72;94806.31;5090248;28;20215;-71
2021/07/06 03:30:27;;;;;;;29.63;26.00;;;;;;;20.86;64.01;94804.34;5089702;28;20282;-72
2021/07/06 03:32:55;;;;;;;26.30;23.53;;;;;;;21.04;63.99;94817.28;5089537;28;20230;-73
2021/07/06 03:35:23;;;;;;;25.63;20.77;;;;;;;21.08;63.62;94793.44;5090253;28;20234;-70
2021/07/06 03:37:51;;;;;;;23.50;19.70;;;;;;;21.05;63.55;94813.53;5081185;28;20339;-73
2021/07/06 03:40:18;;;;;;;21.40;19.20;;;;;;;21.17;63.43;94814.72;5084467;28;20957;-70
2021/07/06 03:42:48;;;;;;;20.80;18.70;;;;;;;21.25;63.57;94816.53;5090038;28;20560;-74
2021/07/06 03:45:16;;;;;;;21.50;17.90;;;;;;;21.10;64.30;94825.88;5089763;28;20206;-77
2021/07/06 03:47:44;;;;;;;20.00;15.73;;;;;;;21.25;64.05;94827.19;5075742;28;20222;-71
2021/07/06 03:50:18;;;;;;;18.90;15.60;;;;;;;21.07;64.26;94824.66;5088376;28;20202;-73
2021/07/06 03:52:58;;;;;;;18.77;14.27;;;;;;;21.23;64.09;94818.75;5082354;28;20227;-72
2021/07/06 03:55:26;;;;;;;17.17;14.60;;;;;;;21.32;64.22;94824.78;5068082;28;20249;-77
2021/07/06 03:57:54;;;;;;;17.83;13.70;;;;;;;21.16;64.50;94819.28;5071426;28;20818;-75
2021/07/06 04:00:27;;;;;;;15.73;13.37;;;;;;;21.11;64.69;94828.22;5075621;28;20229;-72
2021/07/06 04:02:56;;;;;;;18.23;12.87;;;;;;;21.18;64.60;94827.72;5072328;28;20645;-72
2021/07/06 04:05:23;;;;;;;17.87;12.23;;;;;;;21.26;64.44;94818.13;5069704;28;20206;-75
2021/07/06 04:07:51;;;;;;;16.10;12.00;;;;;;;21.27;64.67;94825.78;5068873;28;20191;-72
2021/07/06 04:10:19;;;;;;;15.43;12.10;;;;;;;21.41;64.40;94830.84;5072078;28;20222;-68
2021/07/06 04:12:48;;;;;;;13.87;12.23;;;;;;;21.25;64.20;94824.53;5085173;28;20237;-68
2021/07/06 04:15:16;;;;;;;14.90;12.03;;;;;;;21.37;64.06;94840.63;5088782;28;20199;-65
2021/07/06 04:17:43;;;;;;;13.73;12.33;;;;;;;21.26;64.90;94855.44;5084485;28;20227;-65
2021/07/06 04:20:16;;;;;;;14.27;11.60;;;;;;;21.41;64.43;94846.84;5088530;28;20521;-66
2021/07/06 04:22:44;;;;;;;18.23;11.90;;;;;;;21.57;64.30;94847.84;5089172;28;20310;-64
2021/07/06 04:25:12;;;;;;;13.70;12.30;;;;;;;21.50;65.41;94850.22;5090965;28;20195;-66
2021/07/06 04:27:39;;;;;;;14.63;12.80;;;;;;;21.54;65.62;94851.16;5092962;28;20188;-63
2021/07/06 04:30:08;;;;;;;18.63;13.80;;;;;;;21.62;65.32;94847.66;5092218;28;20195;-65
2021/07/06 04:32:35;;;;;;;15.23;13.03;;;;;;;21.64;65.45;94853.44;5092220;28;20234;-65
2021/07/06 04:35:03;;;;;;;19.87;12.93;;;;;;;21.72;65.60;94857.91;5089157;28;20273;-66
2021/07/06 04:37:31;;;;;;;16.10;13.30;;;;;;;21.60;65.94;94845.31;5081757;28;20251;-66
2021/07/06 04:39:59;;;;;;;17.73;13.77;;;;;;;21.69;65.45;94859.38;5080979;28;20691;-65
2021/07/06 04:42:26;;;;;;;19.53;14.27;;;;;;;21.64;65.05;94866.78;5093401;28;20187;-65
2021/07/06 04:44:53;;;;;;;16.13;13.40;;;;;;;21.25;65.09;94865.31;5092396;28;20197;-69
2021/07/06 04:47:19;;;;;;;16.67;14.53;;;;;;;21.61;64.06;94867.41;5092494;28;20188;-68
2021/07/06 04:49:46;;;;;;;16.00;13.73;;;;;;;21.85;63.43;94872.91;5092360;28;20196;-71
2021/07/06 04:52:14;;;;;;;19.13;14.40;;;;;;;21.86;63.66;94880.59;5089646;28;20219;-66
2021/07/06 04:54:41;;;;;;;15.73;14.03;;;;;;;22.02;64.70;94883.44;5090983;28;20191;-66
2021/07/06 04:57:08;;;;;;;59.13;46.77;;;;;;;22.15;63.98;94887.75;5085660;28;20222;-66
2021/07/06 04:59:35;;;;;;;73.33;65.37;;;;;;;22.56;63.03;94890.34;5092099;28;20187;-65
2021/07/06 05:02:04;;;;;;;55.33;48.30;;;;;;;22.65;63.59;94891.03;5091909;28;20199;-63
2021/07/06 05:04:32;;;;;;;26.03;19.10;;;;;;;22.65;63.52;94884.88;5086440;28;20286;-68
2021/07/06 05:06:59;;;;;;;18.20;16.30;;;;;;;22.50;63.64;94888.94;5092399;28;20196;-68
2021/07/06 05:09:26;;;;;;;19.37;16.43;;;;;;;22.31;64.33;94891.34;5086536;28;20202;-64
2021/07/06 05:11:53;;;;;;;23.83;16.87;;;;;;;22.50;64.69;94888.19;5092595;28;20195;-68
2021/07/06 05:14:20;;;;;;;17.93;15.13;;;;;;;22.73;63.92;94897.38;5086472;28;20195;-68
2021/07/06 05:16:47;;;;;;;18.57;15.63;;;;;;;22.69;64.79;94894.59;5091348;28;20211;-66
2021/07/06 05:19:14;;;;;;;18.17;16.23;;;;;;;22.67;64.70;94888.81;5091559;28;20199;-67
2021/07/06 05:21:41;;;;;;;16.33;14.63;;;;;;;22.40;62.34;94872.56;5092338;28;20326;-63
2021/07/06 05:24:09;;;;;;;15.63;14.03;;;;;;;22.82;62.64;94895.41;5091559;28;20608;-67
2021/07/06 05:26:36;;;;;;;17.87;15.50;;;;;;;22.84;62.90;94893.97;5094883;28;20199;-65
2021/07/06 05:29:04;;;;;;;40.70;36.03;;;;;;;22.77;60.47;94882.25;5096196;28;20191;-66
2021/07/06 05:31:31;;;;;;;175.80;158.37;;;;;;;22.82;58.92;94901.53;5096470;28;20227;-64
2021/07/06 05:33:58;;;;;;;15.37;13.40;;;;;;;22.79;58.23;94891.50;5093210;28;20367;-64
2021/07/06 05:36:25;;;;;;;16.87;14.33;;;;;;;23.20;58.30;94890.53;5077201;28;20306;-66
2021/07/06 05:38:53;;;;;;;20.23;13.60;;;;;;;23.23;57.78;94883.75;5092040;28;20195;-65
2021/07/06 05:41:21;;;;;;;15.07;12.83;;;;;;;22.91;58.27;94894.19;5090492;28;20191;-65
2021/07/06 05:43:48;;;;;;;17.70;12.63;;;;;;;23.14;58.01;94897.19;5075786;28;20192;-69
2021/07/06 05:46:15;;;;;;;15.23;12.97;;;;;;;22.93;58.01;94886.63;5078998;28;20221;-65
2021/07/06 05:48:42;;;;;;;14.77;12.23;;;;;;;23.24;57.68;94907.47;5077662;28;20670;-66
2021/07/06 05:51:09;;;;;;;17.63;13.43;;;;;;;23.32;58.12;94906.59;5085521;28;20631;-65
2021/07/06 05:53:37;;;;;;;13.97;12.67;;;;;;;23.73;57.14;94902.88;5084312;28;20199;-66
2021/07/06 05:56:04;;;;;;;21.80;12.77;;;;;;;23.75;57.32;94906.00;5086221;28;20196;-66
2021/07/06 05:58:31;;;;;;;16.63;13.13;;;;;;;23.66;56.89;94903.47;5082563;28;20801;-64
2021/07/06 06:00:58;;;;;;;12.97;11.70;;;;;;;23.65;56.53;94906.47;5073878;28;20298;-66
2021/07/06 06:03:25;;;;;;;14.23;12.33;;;;;;;23.60;56.27;94909.34;5080824;28;20202;-66
2021/07/06 06:05:52;;;;;;;13.80;12.40;;;;;;;23.76;56.32;94891.50;5090788;28;20565;-65
2021/07/06 06:08:19;;;;;;;13.77;11.77;;;;;;;23.68;56.36;94905.78;5091608;28;20201;-67
2021/07/06 06:10:46;;;;;;;13.50;12.03;;;;;;;23.67;55.89;94905.00;5091299;28;20272;-68
2021/07/06 06:13:13;;;;;;;12.97;11.60;;;;;;;23.36;56.13;94904.00;5091444;28;20205;-66
2021/07/06 06:15:40;;;;;;;16.67;13.23;;;;;;;23.30;55.88;94913.41;5091651;28;20191;-66
2021/07/06 06:18:07;;;;;;;13.73;12.27;;;;;;;23.62;54.79;94907.13;5086681;28;20231;-66
2021/07/06 06:20:34;;;;;;;14.17;11.20;;;;;;;23.79;54.69;94907.69;5086681;28;20230;-65
2021/07/06 06:23:03;;;;;;;14.67;11.80;;;;;;;23.77;54.66;94909.13;5091192;28;20200;-67
2021/07/06 06:25:31;;;;;;;17.83;12.17;;;;;;;23.62;54.50;94896.44;5091095;28;20715;-66
2021/07/06 06:27:59;;;;;;;14.57;12.43;;;;;;;23.96;54.63;94902.03;5091125;28;20218;-66
2021/07/06 06:30:26;;;;;;;15.93;12.10;;;;;;;24.08;54.16;94893.22;5090725;28;20194;-68
2021/07/06 06:32:55;;;;;;;15.23;10.97;;;;;;;24.22;54.35;94898.97;5090941;28;20241;-66
2021/07/06 06:35:23;;;;;;;15.43;11.93;;;;;;;24.17;54.26;94896.53;5090963;28;20206;-67
2021/07/06 06:37:49;;;;;;;15.73;11.67;;;;;;;23.99;53.59;94890.66;5082612;28;20208;-67
2021/07/06 06:40:18;;;;;;;14.80;10.87;;;;;;;24.27;53.70;94890.69;5085351;28;20199;-67
2021/07/06 06:42:45;;;;;;;16.40;11.47;;;;;;;24.10;52.97;94888.31;5084463;28;20299;-66
2021/07/06 06:45:13;;;;;;;15.20;11.30;;;;;;;24.32;52.34;94887.78;5083745;28;20223;-65
2021/07/06 06:47:40;;;;;;;15.97;12.13;;;;;;;24.55;52.04;94888.78;5076732;28;20200;-66
2021/07/06 06:50:10;;;;;;;12.33;10.37;;;;;;;24.96;51.93;94880.28;5078748;28;20712;-71
2021/07/06 06:52:37;;;;;;;14.43;9.70;;;;;;;24.73;49.95;94876.66;5088763;28;20202;-68
2021/07/06 06:55:05;;;;;;;12.50;10.13;;;;;;;25.11;50.64;94886.75;5090601;28;20230;-69
2021/07/06 06:57:32;;;;;;;12.83;10.93;;;;;;;25.30;49.90;94878.81;5073474;28;20787;-67
2021/07/06 07:00:03;;;;;;;10.67;9.63;;;;;;;25.85;49.81;94888.50;5079037;28;20190;-65
2021/07/06 07:02:30;;;;;;;11.60;10.47;;;;;;;25.57;50.28;94882.50;5088753;28;20195;-69
2021/07/06 07:04:58;;;;;;;16.13;9.20;;;;;;;25.71;48.15;94877.47;5077897;28;20219;-67
2021/07/06 07:07:25;;;;;;;10.57;9.53;;;;;;;25.65;48.76;94878.84;5075979;28;20196;-70
2021/07/06 07:09:52;;;;;;;13.20;9.13;;;;;;;25.27;48.85;94878.72;5090003;28;20697;-69
2021/07/06 07:12:20;;;;;;;10.90;8.67;;;;;;;25.27;48.33;94886.78;5090752;28;20302;-67
2021/07/06 07:14:48;;;;;;;12.17;10.40;;;;;;;25.77;48.61;94882.19;5089766;28;20195;-70
2021/07/06 07:17:15;;;;;;;12.87;11.53;;;;;;;25.93;48.99;94890.19;5079168;28;20647;-65
2021/07/06 07:19:42;;;;;;;14.10;12.63;;;;;;;26.06;46.98;94886.28;5078229;28;20194;-68
2021/07/06 07:22:09;;;;;;;10.30;9.30;;;;;;;25.52;46.76;94885.47;5090067;28;20196;-67
2021/07/06 07:24:36;;;;;;;17.60;15.50;;;;;;;25.18;47.48;94896.91;5088664;28;20615;-67
2021/07/06 07:27:04;;;;;;;20.57;17.03;;;;;;;25.50;47.17;94888.50;5090329;28;20653;-67
2021/07/06 07:29:32;;;;;;;16.97;15.10;;;;;;;25.20;47.58;94878.56;5090058;28;20197;-67
2021/07/06 07:32:00;;;;;;;12.43;10.07;;;;;;;25.98;48.04;94892.63;5090605;28;20241;-69
2021/07/06 07:34:27;;;;;;;9.90;8.90;;;;;;;26.02;46.51;94885.41;5091845;28;20262;-65
2021/07/06 07:36:54;;;;;;;15.77;8.93;;;;;;;25.98;47.81;94877.25;5092589;28;20773;-69
2021/07/06 07:39:21;;;;;;;11.97;8.20;;;;;;;26.24;47.04;94879.34;5073651;28;20196;-67
2021/07/06 07:41:48;;;;;;;10.50;9.13;;;;;;;26.34;44.56;94873.41;5070476;28;20208;-70
2021/07/06 07:44:15;;;;;;;10.07;8.37;;;;;;;26.33;46.99;94871.84;5088805;28;20233;-72
2021/07/06 07:46:42;;;;;;;11.10;8.27;;;;;;;26.50;46.60;94871.41;5079116;28;20199;-68
2021/07/06 07:49:09;;;;;;;10.27;9.30;;;;;;;26.64;46.66;94876.28;5087477;28;20222;-67
2021/07/06 07:51:36;;;;;;;11.40;8.13;;;;;;;26.63;44.87;94869.31;5080346;28;20665;-68
2021/07/06 07:54:03;;;;;;;9.30;8.13;;;;;;;26.39;44.83;94875.03;5069130;28;20245;-69
2021/07/06 07:56:30;;;;;;;9.27;8.00;;;;;;;26.48;46.23;94872.88;5069320;28;20287;-69
2021/07/06 07:58:57;;;;;;;9.23;7.97;;;;;;;26.91;44.62;94875.25;5081964;28;20559;-67
2021/07/06 08:01:24;;;;;;;8.83;8.03;;;;;;;26.89;43.90;94869.44;5083229;28;20223;-66
2021/07/06 08:03:51;;;;;;;13.17;7.87;;;;;;;26.84;44.85;94865.13;5082411;28;20194;-68
2021/07/06 08:06:18;;;;;;;10.63;7.47;;;;;;;27.27;44.19;94876.59;5070258;28;20202;-64
2021/07/06 08:08:44;;;;;;;11.00;7.43;;;;;;;27.31;43.40;94866.69;5080734;28;20216;-69
2021/07/06 08:11:11;;;;;;;8.37;7.37;;;;;;;27.54;42.92;94870.09;5071616;28;20799;-69
2021/07/06 08:13:39;;;;;;;8.77;7.83;;;;;;;27.51;44.19;94884.28;5078882;28;20209;-67
2021/07/06 08:16:06;;;;;;;8.90;7.23;;;;;;;27.58;42.42;94892.47;5074897;28;20275;-64
2021/07/06 08:18:33;;;;;;;9.67;6.83;;;;;;;27.00;42.28;94884.63;5082125;28;20223;-69
2021/07/06 08:21:00;;;;;;;14.87;7.47;;;;;;;27.55;42.78;94882.44;5088585;28;20620;-64
2021/07/06 08:23:27;;;;;;;9.33;7.43;;;;;;;27.56;41.63;94889.34;5089766;28;20199;-67
2021/07/06 08:25:54;;;;;;;10.27;6.87;;;;;;;27.72;40.34;94873.81;5088747;28;20556;-66
2021/07/06 08:28:22;;;;;;;9.50;7.33;;;;;;;27.64;40.94;94891.03;5089691;28;20201;-65
2021/07/06 08:30:50;;;;;;;13.27;8.23;;;;;;;27.63;40.72;94878.69;5089005;28;20197;-65
2021/07/06 08:33:17;;;;;;;11.67;7.80;;;;;;;27.21;40.68;94878.81;5089691;28;20206;-68
2021/07/06 08:35:45;;;;;;;7.13;6.40;;;;;;;26.92;41.56;94887.53;5088789;28;20648;-67
2021/07/06 08:38:16;;;;;;;9.20;6.93;;;;;;;27.63;41.60;94884.84;5078219;28;20227;-70
2021/07/06 08:40:44;;;;;;;7.80;6.97;;;;;;;27.96;41.74;94876.88;5068618;28;20203;-69
2021/07/06 08:43:11;;;;;;;10.13;7.33;;;;;;;28.16;42.95;94880.19;5080469;28;20210;-65
2021/07/06 08:45:38;;;;;;;11.03;8.00;;;;;;;28.11;43.68;94877.06;5088884;28;20651;-68
2021/07/06 08:48:08;;;;;;;10.03;7.10;;;;;;;28.43;41.86;94876.28;5080453;28;20188;-63
2021/07/06 08:50:35;;;;;;;8.17;7.13;;;;;;;28.38;40.95;94873.13;5070228;28;20203;-70
2021/07/06 08:53:03;;;;;;;11.93;7.37;;;;;;;28.36;39.75;94868.13;5089574;28;20184;-65
2021/07/06 08:55:30;;;;;;;8.67;6.97;;;;;;;28.43;40.67;94878.22;5073561;28;20566;-65
2021/07/06 08:57:57;;;;;;;9.07;7.20;;;;;;;27.89;40.29;94881.38;5075141;28;20218;-67
2021/07/06 09:00:29;;;;;;;8.90;7.77;;;;;;;26.96;41.48;94883.78;5089099;28;20207;-65
2021/07/06 09:03:04;;;;;;;9.57;7.60;;;;;;;27.66;41.20;94883.38;5069020;28;20226;-68
2021/07/06 09:05:32;;;;;;;11.80;8.07;;;;;;;27.76;41.46;94874.66;5068801;28;20200;-67
2021/07/06 09:08:00;;;;;;;8.30;6.87;;;;;;;27.70;40.77;94884.19;5073174;28;20206;-69
2021/07/06 09:10:34;;;;;;;9.47;7.00;;;;;;;27.87;39.88;94876.34;5077704;28;20191;-65
2021/07/06 09:13:01;;;;;;;7.97;7.17;;;;;;;28.22;41.82;94861.78;5071030;28;20583;-65
2021/07/06 09:15:33;;;;;;;8.00;7.20;;;;;;;27.87;41.00;94872.88;5082592;28;20256;-67
2021/07/06 09:18:20;;;;;;;8.47;6.80;;;;;;;28.02;39.76;94874.66;5092875;28;20231;-68
2021/07/06 09:21:03;;;;;;;11.17;7.43;;;;;;;28.52;40.04;94876.78;5093029;28;20202;-69
2021/07/06 09:23:35;;;;;;;10.03;6.97;;;;;;;28.67;39.49;94878.50;5092813;28;20245;-68
2021/07/06 09:26:16;;;;;;;12.17;8.23;;;;;;;28.96;40.74;94869.53;5091742;28;20202;-68
2021/07/06 09:28:52;;;;;;;8.63;6.33;;;;;;;29.22;39.43;94873.22;5092982;28;20724;-64
2021/07/06 09:31:25;;;;;;;8.17;7.47;;;;;;;29.23;39.54;94864.00;5091673;28;20596;-68
2021/07/06 09:33:57;;;;;;;7.10;6.47;;;;;;;29.34;37.08;94867.56;5092512;28;20191;-65
2021/07/06 09:36:48;;;;;;;7.93;6.27;;;;;;;29.55;36.44;94871.19;5091956;28;20661;-65
2021/07/06 09:39:23;;;;;;;7.13;6.43;;;;;;;28.62;37.14;94854.56;5072914;28;20214;-66
2021/07/06 09:42:08;;;;;;;6.87;6.17;;;;;;;29.31;36.82;94857.50;5091935;28;20195;-68
2021/07/06 09:44:41;;;;;;;13.40;6.90;;;;;;;29.20;37.29;94867.44;5071640;28;20192;-68
2021/07/06 09:47:15;;;;;;;8.40;6.67;;;;;;;29.54;37.84;94856.13;5087154;28;20284;-66
2021/07/06 09:49:46;;;;;;;12.47;7.07;;;;;;;29.67;38.37;94859.31;5084028;28;20196;-68
2021/07/06 09:52:18;;;;;;;10.87;7.37;;;;;;;29.71;36.40;94868.22;5085826;28;20217;-68
2021/07/06 09:54:47;;;;;;;9.63;6.23;;;;;;;29.59;35.62;94863.09;5079464;28;20187;-65
2021/07/06 09:57:26;;;;;;;13.37;6.20;;;;;;;29.30;35.83;94864.06;5077396;28;20223;-66
2021/07/06 10:00:11;;;;;;;7.03;5.80;;;;;;;29.04;35.44;94858.78;5083682;28;20207;-67
2021/07/06 10:02:45;;;;;;;9.17;5.80;;;;;;;28.60;36.29;94859.56;5089253;28;20228;-71
2021/07/06 10:05:18;;;;;;;7.57;5.97;;;;;;;28.71;36.19;94860.44;5091525;28;20192;-68
2021/07/06 10:07:46;;;;;;;6.33;5.67;;;;;;;28.62;35.65;94857.28;5091847;28;20274;-67
2021/07/06 10:10:15;;;;;;;5.67;5.17;;;;;;;28.89;35.74;94852.50;5091514;28;20222;-70
2021/07/06 10:12:44;;;;;;;7.80;6.17;;;;;;;29.21;35.33;94852.81;5076790;28;20211;-67
2021/07/06 10:15:13;;;;;;;17.70;7.60;;;;;;;29.14;35.15;94848.16;5082592;28;20742;-68
2021/07/06 10:17:49;;;;;;;14.50;6.37;;;;;;;29.64;36.11;94843.84;5071387;28;20673;-67
2021/07/06 10:20:25;;;;;;;6.67;5.97;;;;;;;29.89;34.61;94845.56;5084525;28;20187;-70
2021/07/06 10:22:59;;;;;;;7.83;5.93;;;;;;;30.05;37.71;94847.94;5090585;28;20289;-66
2021/07/06 10:25:28;;;;;;;11.40;5.90;;;;;;;30.06;33.69;94854.09;5090889;28;20198;-68
2021/07/06 10:28:02;;;;;;;5.23;4.73;;;;;;;30.19;33.03;94849.91;5077592;28;20244;-68
2021/07/06 10:30:42;;;;;;;5.73;4.67;;;;;;;30.62;31.84;94849.69;5091019;28;20585;-66
2021/07/06 10:33:13;;;;;;;5.40;4.90;;;;;;;30.58;32.94;94843.50;5078502;28;20225;-66
2021/07/06 10:35:40;;;;;;;5.30;4.83;;;;;;;30.78;31.37;94842.00;5091241;28;20291;-64
2021/07/06 10:38:32;;;;;;;5.53;4.90;;;;;;;30.90;32.06;94843.59;5070801;28;20223;-68
2021/07/06 10:41:00;;;;;;;6.67;5.33;;;;;;;30.86;32.67;94838.16;5076913;28;20187;-68
2021/07/06 10:43:31;;;;;;;6.27;4.97;;;;;;;30.62;32.92;94841.56;5091410;28;20256;-65
2021/07/06 10:46:15;;;;;;;7.73;4.70;;;;;;;30.51;33.23;94838.06;5075788;28;20204;-64
2021/07/06 10:48:44;;;;;;;9.00;5.70;;;;;;;30.74;34.12;94841.22;5076708;28;20195;-66
2021/07/06 10:51:33;;;;;;;5.80;5.30;;;;;;;31.15;33.67;94832.78;5070271;28;20192;-66
2021/07/06 10:54:04;;;;;;;7.43;5.23;;;;;;;30.88;32.18;94825.03;5084832;28;20206;-66
2021/07/06 10:56:42;;;;;;;8.63;5.03;;;;;;;31.12;30.49;94823.50;5070781;28;20207;-65
2021/07/06 10:59:35;;;;;;;5.40;4.37;;;;;;;30.88;31.12;94826.22;5069815;28;20241;-66
2021/07/06 11:02:23;;;;;;;7.07;5.77;;;;;;;30.58;31.15;94840.78;5082458;28;20277;-66
2021/07/06 11:04:57;;;;;;;5.50;5.00;;;;;;;31.16;32.09;94829.69;5076880;28;20191;-65
2021/07/06 11:07:30;;;;;;;5.77;4.73;;;;;;;31.32;32.26;94831.97;5090697;28;20244;-64
2021/07/06 11:09:57;;;;;;;4.90;4.50;;;;;;;31.35;32.06;94826.59;5070090;28;20234;-65
2021/07/06 11:12:30;;;;;;;5.73;4.60;;;;;;;31.77;32.19;94823.03;5083566;28;20190;-66
2021/07/06 11:14:59;;;;;;;7.07;5.30;;;;;;;31.52;32.96;94825.03;5076156;28;20201;-67
2021/07/06 11:17:36;;;;;;;8.00;5.10;;;;;;;31.49;31.97;94825.81;5077873;28;20198;-68
2021/07/06 11:20:05;;;;;;;5.70;5.10;;;;;;;31.31;32.88;94819.63;5081264;28;20217;-65
2021/07/06 11:22:54;;;;;;;7.90;5.10;;;;;;;31.74;33.15;94816.47;5090451;28;20191;-65
2021/07/06 11:25:36;;;;;;;5.63;4.83;;;;;;;31.98;31.51;94817.56;5089736;28;20294;-66
2021/07/06 11:28:26;;;;;;;4.73;4.33;;;;;;;32.14;31.12;94820.59;5077709;28;20581;-65
2021/07/06 11:31:00;;;;;;;8.13;5.03;;;;;;;31.97;31.09;94824.16;5089769;28;20199;-65